Time;durP1;ratioP1;P1;durP2;ratioP2;P2;SDS_P1;SDS_P2;PMS_P1;PMS_P2;Temp;Humidity;BMP_temperature;BMP_pressure;BME280_temperature;BME280_humidity;BME280_pressure;Samples;Min_cycle;Max_cycle;Signal;HPM_P1;HPM_P2
2022/10/28 00:01:28;;;;;;;1.30;1.20;;;25.70;72.00;;;;;;5074678;28;20439;-91
2022/10/28 00:03:56;;;;;;;1.10;1.00;;;25.70;72.00;;;;;;5074414;28;20510;-90
2022/10/28 00:06:25;;;;;;;1.20;1.10;;;25.70;72.00;;;;;;5074633;28;20445;-90
2022/10/28 00:08:52;;;;;;;1.87;1.37;;;25.70;71.90;;;;;;5074713;28;20470;-90
2022/10/28 00:11:22;;;;;;;1.50;1.17;;;25.80;72.10;;;;;;5074327;28;20444;-90
2022/10/28 00:13:52;;;;;;;1.20;1.10;;;25.70;72.80;;;;;;5074687;28;20434;-91
2022/10/28 00:16:21;;;;;;;1.40;1.30;;;25.70;71.90;;;;;;5074208;28;20892;-90
2022/10/28 00:18:49;;;;;;;1.30;1.20;;;25.70;71.90;;;;;;5074411;28;20470;-91
2022/10/28 00:21:18;;;;;;;1.33;1.20;;;25.70;71.90;;;;;;5074089;28;20445;-91
2022/10/28 00:23:45;;;;;;;1.00;0.90;;;25.70;71.90;;;;;;5074094;28;20489;-90
2022/10/28 00:26:14;;;;;;;1.40;1.30;;;25.70;71.90;;;;;;5074184;28;20450;-90
2022/10/28 00:28:44;;;;;;;1.20;1.10;;;25.70;71.90;;;;;;5074579;28;20447;-90
2022/10/28 00:31:12;;;;;;;1.43;1.33;;;25.50;71.70;;;;;;5074150;28;20450;-90
2022/10/28 00:33:39;;;;;;;1.40;1.30;;;25.70;71.90;;;;;;5074196;28;20444;-91
2022/10/28 00:36:12;;;;;;;1.40;1.30;;;25.70;71.90;;;;;;5074627;28;20456;-91
2022/10/28 00:38:39;;;;;;;1.47;1.37;;;25.70;71.80;;;;;;5074008;28;20815;-91
2022/10/28 00:41:06;;;;;;;1.40;1.30;;;25.80;71.90;;;;;;5073947;28;20550;-91
2022/10/28 00:43:35;;;;;;;1.40;1.30;;;25.80;71.90;;;;;;5073882;28;20507;-91
2022/10/28 00:46:06;;;;;;;2.70;1.40;;;25.70;71.80;;;;;;5074294;28;20451;-91
2022/10/28 00:48:33;;;;;;;1.37;1.27;;;25.70;71.80;;;;;;5073720;28;20922;-91
2022/10/28 00:51:00;;;;;;;1.30;1.20;;;25.70;71.80;;;;;;5073276;28;20474;-91
2022/10/28 00:53:31;;;;;;;1.50;1.40;;;25.70;71.70;;;;;;5074169;28;20967;-90
2022/10/28 00:56:01;;;;;;;1.13;1.03;;;25.80;71.90;;;;;;5074024;28;20470;-90
2022/10/28 00:58:29;;;;;;;1.47;1.37;;;25.70;71.70;;;;;;5073794;28;20453;-91
2022/10/28 01:00:56;;;;;;;1.60;1.20;;;25.70;71.70;;;;;;5073828;28;20455;-90
2022/10/28 01:03:24;;;;;;;1.17;1.07;;;25.70;71.70;;;;;;5073794;28;20485;-90
2022/10/28 01:05:52;;;;;;;1.33;1.23;;;25.70;71.70;;;;;;5074182;28;20455;-89
2022/10/28 01:08:20;;;;;;;1.33;1.10;;;25.70;71.60;;;;;;5073418;28;20488;-90
2022/10/28 01:11:05;;;;;;;1.67;1.17;;;25.70;71.60;;;;;;5073740;28;20440;-91
2022/10/28 01:13:42;;;;;;;1.60;1.50;;;25.70;72.40;;;;;;5073881;28;20539;-91
2022/10/28 01:16:21;;;;;;;2.53;1.77;;;25.70;71.60;;;;;;5074347;28;20450;-90
2022/10/28 01:18:58;;;;;;;1.40;1.30;;;25.70;71.60;;;;;;5073481;28;20918;-90
2022/10/28 01:21:53;;;;;;;1.10;1.00;;;25.70;71.60;;;;;;5073698;28;20435;-91
2022/10/28 01:24:47;;;;;;;1.40;1.30;;;25.70;71.40;;;;;;5073587;28;20800;-90
2022/10/28 01:27:52;;;;;;;1.10;1.00;;;25.70;71.50;;;;;;5073824;28;20438;-90
2022/10/28 01:30:21;;;;;;;2.37;1.37;;;25.70;71.50;;;;;;5073596;28;20435;-90
2022/10/28 01:32:55;;;;;;;1.50;1.40;;;25.60;71.50;;;;;;5073448;28;20446;-91
2022/10/28 01:35:27;;;;;;;2.03;1.20;;;25.60;71.50;;;;;;5073391;28;20438;-90
2022/10/28 01:38:12;;;;;;;1.23;1.13;;;25.60;72.30;;;;;;5073585;28;20463;-90
2022/10/28 01:40:46;;;;;;;1.63;1.10;;;25.60;71.50;;;;;;5073649;28;20937;-92
2022/10/28 01:43:17;;;;;;;1.30;1.20;;;25.60;71.50;;;;;;5073614;28;20450;-91
2022/10/28 01:45:51;;;;;;;1.30;1.20;;;25.60;71.50;;;;;;5073275;28;20461;-90
2022/10/28 01:48:24;;;;;;;1.50;1.40;;;25.60;71.40;;;;;;5073565;28;20446;-91
2022/10/28 01:50:56;;;;;;;1.13;1.03;;;25.60;71.40;;;;;;5073574;28;20444;-90
2022/10/28 01:53:28;;;;;;;1.53;1.43;;;25.60;71.40;;;;;;5073630;28;20435;-90
2022/10/28 01:55:58;;;;;;;2.60;1.47;;;25.60;71.40;;;;;;5073182;28;20934;-91
2022/10/28 01:58:30;;;;;;;1.50;1.37;;;25.60;71.40;;;;;;5073183;28;20966;-91
2022/10/28 02:00:58;;;;;;;1.30;1.20;;;25.60;71.40;;;;;;5073257;28;20458;-90
2022/10/28 02:03:27;;;;;;;1.93;1.40;;;25.70;71.50;;;;;;5075543;28;20447;-92
2022/10/28 02:05:56;;;;;;;1.13;1.03;;;25.60;71.40;;;;;;5076459;28;20517;-90
2022/10/28 02:08:38;;;;;;;1.30;1.20;;;25.60;71.40;;;;;;5076548;28;20480;-91
2022/10/28 02:11:25;;;;;;;1.37;1.27;;;25.60;71.40;;;;;;5076808;28;20433;-91
2022/10/28 02:13:59;;;;;;;1.30;1.20;;;25.60;71.30;;;;;;5076583;28;20425;-90
2022/10/28 02:16:33;;;;;;;1.20;1.10;;;25.60;71.40;;;;;;5076981;28;20454;-91
2022/10/28 02:19:07;;;;;;;0.93;0.83;;;25.60;71.30;;;;;;5076646;28;20578;-90
2022/10/28 02:21:45;;;;;;;2.80;1.43;;;25.60;71.30;;;;;;5076543;28;20519;-91
2022/10/28 02:24:18;;;;;;;1.57;1.47;;;25.60;71.30;;;;;;5076326;28;20996;-92
2022/10/28 02:26:54;;;;;;;1.43;1.33;;;25.60;71.60;;;;;;5076798;28;20903;-90
2022/10/28 02:29:27;;;;;;;1.20;1.10;;;25.60;71.30;;;;;;5076732;28;20451;-91
2022/10/28 02:31:57;;;;;;;1.33;1.23;;;25.60;71.30;;;;;;5076317;28;20541;-91
2022/10/28 02:34:30;;;;;;;1.17;1.07;;;25.60;71.30;;;;;;5076909;28;20456;-90
2022/10/28 02:37:01;;;;;;;1.80;1.70;;;25.60;71.30;;;;;;5076383;28;20441;-91
2022/10/28 02:39:32;;;;;;;1.73;1.40;;;25.60;71.30;;;;;;5075934;28;20467;-91
2022/10/28 02:42:03;;;;;;;1.30;1.00;;;25.60;71.30;;;;;;5076572;28;20435;-91
2022/10/28 02:44:32;;;;;;;1.20;1.10;;;25.60;71.20;;;;;;5076269;28;20801;-91
2022/10/28 02:47:05;;;;;;;1.07;0.97;;;25.60;71.30;;;;;;5076204;28;20447;-91
2022/10/28 02:49:36;;;;;;;1.40;1.30;;;25.60;71.20;;;;;;5076206;28;20807;-91
2022/10/28 02:52:06;;;;;;;1.10;1.00;;;25.60;71.20;;;;;;5076141;28;20447;-91
2022/10/28 02:54:38;;;;;;;1.20;1.10;;;25.60;71.20;;;;;;5076082;28;20444;-91
2022/10/28 02:57:08;;;;;;;1.30;1.20;;;25.60;71.30;;;;;;5076088;28;20534;-92
2022/10/28 02:59:35;;;;;;;1.20;1.10;;;25.60;71.20;;;;;;5076225;28;20440;-91
2022/10/28 03:02:01;;;;;;;1.20;1.10;;;25.60;71.20;;;;;;5075880;28;20451;-92
2022/10/28 03:04:28;;;;;;;1.20;1.10;;;25.60;71.20;;;;;;5076027;28;20484;-91
2022/10/28 03:06:57;;;;;;;1.00;0.90;;;25.60;71.20;;;;;;5076290;28;20485;-91
2022/10/28 03:09:23;;;;;;;1.00;0.90;;;25.60;71.20;;;;;;5075646;28;20550;-92
2022/10/28 03:11:50;;;;;;;1.13;1.03;;;25.60;71.20;;;;;;5075710;28;20442;-91
2022/10/28 03:14:17;;;;;;;1.10;1.00;;;25.60;71.20;;;;;;5074827;28;21017;-91
2022/10/28 03:16:44;;;;;;;1.10;1.00;;;25.60;71.10;;;;;;5075486;28;20437;-92
2022/10/28 03:19:11;;;;;;;1.00;0.90;;;25.60;71.10;;;;;;5075738;28;20448;-92
2022/10/28 03:21:37;;;;;;;1.20;1.10;;;25.60;71.10;;;;;;5075376;28;21002;-91
2022/10/28 03:24:06;;;;;;;1.10;1.00;;;25.60;71.10;;;;;;5075423;28;20478;-92
2022/10/28 03:26:33;;;;;;;2.43;1.00;;;25.60;71.10;;;;;;5075049;28;20431;-92
2022/10/28 03:29:00;;;;;;;1.20;1.10;;;25.60;71.10;;;;;;5075484;28;20526;-92
2022/10/28 03:31:27;;;;;;;1.33;1.23;;;25.60;71.10;;;;;;5075825;28;20878;-91
2022/10/28 03:33:54;;;;;;;1.10;1.00;;;25.60;71.10;;;;;;5076303;28;20452;-92
2022/10/28 03:36:20;;;;;;;1.10;1.00;;;25.60;71.10;;;;;;5075627;28;20439;-91
2022/10/28 03:38:47;;;;;;;1.40;1.30;;;25.60;71.10;;;;;;5075156;28;20470;-91
2022/10/28 03:41:15;;;;;;;1.60;1.10;;;25.60;71.10;;;;;;5075191;28;20475;-92
2022/10/28 03:43:42;;;;;;;1.30;1.20;;;25.60;71.10;;;;;;5075469;28;20446;-91
2022/10/28 03:46:09;;;;;;;1.13;1.03;;;25.60;71.10;;;;;;5075118;28;21007;-91
2022/10/28 03:48:36;;;;;;;1.30;1.20;;;25.60;71.10;;;;;;5075156;28;20542;-90
2022/10/28 03:51:03;;;;;;;1.40;1.30;;;25.60;71.10;;;;;;5075531;28;20446;-90
2022/10/28 03:53:30;;;;;;;1.10;1.00;;;25.60;71.10;;;;;;5075263;28;20454;-91
2022/10/28 03:55:58;;;;;;;1.60;1.50;;;25.60;71.10;;;;;;5075050;28;21021;-90
2022/10/28 03:58:57;;;;;;;1.27;1.17;;;25.60;71.10;;;;;;5074299;28;20459;-91
2022/10/28 04:01:24;;;;;;;1.97;1.60;;;25.60;70.90;;;;;;5074241;28;20768;-90
2022/10/28 04:03:51;;;;;;;1.23;1.13;;;25.50;71.10;;;;;;5074867;28;20862;-89
2022/10/28 04:06:18;;;;;;;1.27;1.17;;;25.50;71.00;;;;;;5074693;28;20487;-90
2022/10/28 04:08:45;;;;;;;1.30;1.20;;;25.50;71.00;;;;;;5074192;28;20486;-89
2022/10/28 04:11:12;;;;;;;1.37;1.20;;;25.50;71.00;;;;;;5074370;28;20504;-89
2022/10/28 04:13:39;;;;;;;1.67;1.13;;;25.50;71.00;;;;;;5074494;28;20533;-89
2022/10/28 04:16:07;;;;;;;1.33;1.23;;;25.50;70.90;;;;;;5074445;28;20449;-91
2022/10/28 04:18:35;;;;;;;1.43;1.10;;;25.50;70.90;;;;;;5074326;28;20533;-90
2022/10/28 04:21:02;;;;;;;1.30;1.20;;;25.50;70.90;;;;;;5074237;28;20444;-92
2022/10/28 04:23:29;;;;;;;1.13;1.00;;;25.50;70.90;;;;;;5074558;28;20452;-92
2022/10/28 04:25:56;;;;;;;1.20;1.10;;;25.50;70.90;;;;;;5074238;28;20846;-92
2022/10/28 04:28:24;;;;;;;1.10;1.00;;;25.50;70.90;;;;;;5056655;28;20529;-92
2022/10/28 04:30:51;;;;;;;1.13;1.00;;;25.50;70.90;;;;;;5074524;28;20439;-91
2022/10/28 04:33:19;;;;;;;1.20;1.03;;;25.50;70.90;;;;;;5075294;28;20525;-93
2022/10/28 04:35:46;;;;;;;1.27;1.17;;;25.50;70.90;;;;;;5074668;28;20472;-93
2022/10/28 04:38:14;;;;;;;1.30;1.20;;;25.50;71.00;;;;;;5074185;28;20468;-93
2022/10/28 04:40:41;;;;;;;1.20;1.10;;;25.50;71.10;;;;;;5074114;28;20804;-93
2022/10/28 04:43:09;;;;;;;1.10;1.00;;;25.50;71.00;;;;;;5074574;28;20440;-92
2022/10/28 04:45:35;;;;;;;1.30;1.00;;;25.60;71.20;;;;;;5074393;28;20569;-92
2022/10/28 04:48:02;;;;;;;1.40;1.30;;;25.50;71.20;;;;;;5074623;28;20998;-93
2022/10/28 04:50:31;;;;;;;1.17;1.00;;;25.50;72.10;;;;;;5074400;28;20494;-91
2022/10/28 04:52:57;;;;;;;1.30;1.20;;;25.50;71.30;;;;;;5074178;28;20823;-92
2022/10/28 04:55:24;;;;;;;1.33;1.23;;;25.50;71.30;;;;;;5074121;28;20809;-92
2022/10/28 04:57:55;;;;;;;1.40;1.30;;;25.50;71.30;;;;;;5074020;28;20874;-91
2022/10/28 05:00:22;;;;;;;2.50;1.10;;;25.50;71.30;;;;;;5074077;28;20542;-92
2022/10/28 05:02:49;;;;;;;1.50;1.40;;;25.50;71.30;;;;;;5074056;28;20893;-92
2022/10/28 05:05:17;;;;;;;1.20;1.10;;;25.50;71.40;;;;;;5074369;28;20581;-92
2022/10/28 05:07:45;;;;;;;1.37;1.27;;;25.50;71.40;;;;;;5073320;28;20536;-91
2022/10/28 05:10:14;;;;;;;1.20;1.10;;;25.50;71.40;;;;;;5073757;28;20470;-92
2022/10/28 05:12:42;;;;;;;1.47;1.37;;;25.50;71.40;;;;;;5074065;28;20913;-91
2022/10/28 05:15:11;;;;;;;1.57;1.47;;;25.50;72.40;;;;;;5073622;28;20440;-92
2022/10/28 05:17:39;;;;;;;1.50;1.40;;;25.50;71.50;;;;;;5073626;28;20538;-91
2022/10/28 05:20:07;;;;;;;1.40;1.30;;;25.50;71.40;;;;;;5073820;28;20791;-92
2022/10/28 05:22:34;;;;;;;1.30;1.13;;;25.50;71.20;;;;;;5074168;28;20455;-92
2022/10/28 05:25:02;;;;;;;2.20;1.50;;;25.50;71.30;;;;;;5073715;28;20479;-91
2022/10/28 05:27:29;;;;;;;1.40;1.30;;;25.50;71.40;;;;;;5073514;28;20435;-91
2022/10/28 05:29:56;;;;;;;1.40;1.30;;;25.50;71.40;;;;;;5074016;28;20537;-93
2022/10/28 05:32:23;;;;;;;1.67;1.57;;;25.50;71.40;;;;;;5073526;28;20530;-92
2022/10/28 05:34:50;;;;;;;1.20;1.10;;;25.50;71.40;;;;;;5073847;28;20538;-92
2022/10/28 05:37:17;;;;;;;1.27;1.17;;;25.50;71.50;;;;;;5058965;28;20571;-91
2022/10/28 05:39:44;;;;;;;1.70;1.60;;;25.50;71.60;;;;;;5057510;28;20473;-92
2022/10/28 05:42:12;;;;;;;1.40;1.30;;;25.50;71.50;;;;;;5057450;28;20950;-92
2022/10/28 05:44:44;;;;;;;2.10;1.33;;;25.50;71.70;;;;;;5058131;28;20522;-91
2022/10/28 05:47:13;;;;;;;1.80;1.70;;;25.50;71.80;;;;;;5061603;28;20536;-92
2022/10/28 05:49:40;;;;;;;1.70;1.60;;;25.50;71.80;;;;;;5059300;28;20450;-91
2022/10/28 05:52:07;;;;;;;1.30;1.20;;;25.40;71.80;;;;;;5057697;28;20475;-91
2022/10/28 05:54:34;;;;;;;1.20;1.10;;;25.50;71.80;;;;;;5057364;28;21012;-93
2022/10/28 05:57:15;;;;;;;1.73;1.50;;;25.50;71.90;;;;;;5057722;28;20994;-93
2022/10/28 05:59:42;;;;;;;1.30;1.10;;;25.50;71.90;;;;;;5057456;28;20479;-92
2022/10/28 06:02:13;;;;;;;1.30;1.20;;;25.50;72.00;;;;;;5058002;28;20981;-91
2022/10/28 06:04:41;;;;;;;1.03;0.93;;;25.50;72.00;;;;;;5057094;28;20789;-90
2022/10/28 06:07:08;;;;;;;3.23;1.60;;;25.50;72.00;;;;;;5056709;28;20915;-91
2022/10/28 06:09:35;;;;;;;1.63;1.20;;;25.50;71.90;;;;;;5057325;28;20458;-91
2022/10/28 06:12:02;;;;;;;1.87;1.70;;;25.50;71.90;;;;;;5067528;28;20456;-90
2022/10/28 06:14:30;;;;;;;1.63;1.53;;;25.50;72.70;;;;;;5081091;28;20946;-92
2022/10/28 06:16:57;;;;;;;4.03;1.40;;;25.50;71.90;;;;;;5081055;28;20440;-91
2022/10/28 06:19:23;;;;;;;1.43;1.33;;;25.50;71.80;;;;;;5070991;28;20534;-91
2022/10/28 06:21:51;;;;;;;1.53;1.43;;;25.50;71.90;;;;;;5057794;28;20452;-91
2022/10/28 06:24:17;;;;;;;1.50;1.40;;;25.50;71.90;;;;;;5056973;28;20539;-91
2022/10/28 06:26:45;;;;;;;1.13;1.03;;;25.50;71.90;;;;;;5056553;28;21004;-92
2022/10/28 06:29:12;;;;;;;1.30;1.20;;;25.50;72.00;;;;;;5056795;28;20452;-91
2022/10/28 06:31:41;;;;;;;1.43;1.33;;;25.50;71.90;;;;;;5056657;28;20517;-92
2022/10/28 06:34:09;;;;;;;1.57;1.47;;;25.50;71.90;;;;;;5057401;28;20463;-89
2022/10/28 06:36:36;;;;;;;3.87;1.80;;;25.50;72.00;;;;;;5056168;28;20539;-89
2022/10/28 06:39:03;;;;;;;3.83;1.83;;;25.50;71.80;;;;;;5056347;28;20463;-89
2022/10/28 06:41:30;;;;;;;4.70;1.70;;;25.50;72.30;;;;;;5056201;28;20530;-92
2022/10/28 06:43:57;;;;;;;2.83;1.73;;;25.50;71.70;;;;;;5056182;28;20520;-91
2022/10/28 06:46:24;;;;;;;5.83;2.17;;;25.50;71.70;;;;;;5056136;28;20485;-91
2022/10/28 06:48:53;;;;;;;1.70;1.60;;;25.50;71.80;;;;;;5054652;28;20535;-91
2022/10/28 06:51:20;;;;;;;2.17;1.97;;;25.50;71.80;;;;;;5056097;28;20454;-91
2022/10/28 06:53:49;;;;;;;4.30;1.60;;;25.50;72.00;;;;;;5056124;28;20439;-90
2022/10/28 06:56:16;;;;;;;1.63;1.53;;;25.50;72.00;;;;;;5056078;28;20520;-88
2022/10/28 06:58:43;;;;;;;3.33;1.83;;;25.50;72.00;;;;;;5055999;28;20535;-91
2022/10/28 07:01:10;;;;;;;6.67;1.80;;;25.50;71.90;;;;;;5055886;28;20450;-86
2022/10/28 07:03:37;;;;;;;1.87;1.77;;;25.50;71.80;;;;;;5055937;28;20440;-90
2022/10/28 07:06:06;;;;;;;1.57;1.47;;;25.40;71.50;;;;;;5055582;28;20575;-87
2022/10/28 07:08:33;;;;;;;5.97;2.10;;;25.40;71.50;;;;;;5055340;28;20834;-91
2022/10/28 07:11:01;;;;;;;6.70;1.60;;;25.40;71.50;;;;;;5055369;28;20436;-86
2022/10/28 07:13:29;;;;;;;2.37;1.90;;;25.40;71.50;;;;;;5055703;28;20486;-87
2022/10/28 07:15:57;;;;;;;1.93;1.60;;;25.40;71.50;;;;;;5055848;28;20536;-86
2022/10/28 07:18:26;;;;;;;2.40;1.60;;;25.40;71.50;;;;;;5055846;28;20444;-86
2022/10/28 07:20:53;;;;;;;1.87;1.20;;;25.40;71.50;;;;;;5055219;28;20452;-90
2022/10/28 07:23:21;;;;;;;2.10;1.60;;;25.40;71.50;;;;;;5055175;28;20442;-86
2022/10/28 07:25:53;;;;;;;2.20;1.73;;;25.40;71.50;;;;;;5055051;28;20585;-88
2022/10/28 07:28:19;;;;;;;1.60;1.50;;;25.40;71.50;;;;;;5055542;28;20432;-85
2022/10/28 07:30:46;;;;;;;1.93;1.60;;;25.40;71.50;;;;;;5054875;28;20771;-91
2022/10/28 07:33:13;;;;;;;4.07;1.73;;;25.40;71.50;;;;;;5055161;28;20447;-86
2022/10/28 07:35:41;;;;;;;2.10;1.73;;;25.40;71.50;;;;;;5054959;28;20450;-86
2022/10/28 07:38:08;;;;;;;1.50;1.40;;;25.40;71.50;;;;;;5055036;28;20471;-91
2022/10/28 07:40:36;;;;;;;1.63;1.53;;;25.40;71.40;;;;;;5054674;28;20450;-86
2022/10/28 07:43:03;;;;;;;2.03;1.57;;;25.40;71.40;;;;;;5055126;28;20440;-91
2022/10/28 07:45:30;;;;;;;2.60;1.90;;;25.40;71.40;;;;;;5054680;28;20902;-90
2022/10/28 07:47:57;;;;;;;1.77;1.67;;;25.40;71.40;;;;;;5054542;28;20443;-91
2022/10/28 07:50:24;;;;;;;1.90;1.80;;;25.40;71.40;;;;;;5054607;28;20472;-86
2022/10/28 07:52:51;;;;;;;9.90;2.30;;;25.50;71.50;;;;;;5054884;28;20453;-87
2022/10/28 07:55:20;;;;;;;2.07;1.67;;;25.50;71.40;;;;;;5054905;28;20566;-91
2022/10/28 07:57:48;;;;;;;1.57;1.40;;;25.50;71.40;;;;;;5054863;28;20491;-91
2022/10/28 08:00:16;;;;;;;2.00;1.80;;;25.50;71.40;;;;;;5054161;28;20448;-86
2022/10/28 08:02:42;;;;;;;3.93;1.93;;;25.50;71.40;;;;;;5054940;28;20451;-89
2022/10/28 08:05:09;;;;;;;2.80;1.40;;;25.50;71.40;;;;;;5054385;28;20447;-86
2022/10/28 08:07:36;;;;;;;2.77;1.90;;;25.50;71.40;;;;;;5054230;28;20486;-90
2022/10/28 08:10:03;;;;;;;2.63;1.50;;;25.50;71.30;;;;;;5054518;28;20448;-86
2022/10/28 08:12:30;;;;;;;1.93;1.27;;;25.50;71.30;;;;;;5036480;28;20939;-90
2022/10/28 08:14:58;;;;;;;2.63;1.50;;;25.50;71.30;;;;;;5054612;28;20444;-89
2022/10/28 08:17:25;;;;;;;3.67;1.60;;;25.50;72.10;;;;;;5054604;28;20942;-91
2022/10/28 08:19:52;;;;;;;2.13;1.90;;;25.50;71.30;;;;;;5054261;28;20447;-87
2022/10/28 08:22:19;;;;;;;1.90;1.80;;;25.50;71.40;;;;;;5054090;28;20452;-86
2022/10/28 08:24:46;;;;;;;1.70;1.50;;;25.50;71.30;;;;;;5054206;28;20445;-86
2022/10/28 08:27:12;;;;;;;1.90;1.63;;;25.50;71.30;;;;;;5054147;28;20491;-86
2022/10/28 08:29:39;;;;;;;2.07;1.27;;;25.50;71.30;;;;;;5054070;28;20958;-89
2022/10/28 08:32:09;;;;;;;1.80;1.70;;;25.50;71.30;;;;;;5054050;28;20527;-86
2022/10/28 08:34:36;;;;;;;1.70;1.60;;;25.60;71.30;;;;;;5053813;28;20962;-92
2022/10/28 08:37:03;;;;;;;2.63;1.40;;;25.50;71.20;;;;;;5053877;28;20463;-92
2022/10/28 08:39:30;;;;;;;2.63;1.57;;;25.60;71.30;;;;;;5054042;28;20429;-90
2022/10/28 08:42:15;;;;;;;2.20;1.70;;;25.60;71.30;;;;;;5053754;28;20449;-86
2022/10/28 08:45:07;;;;;;;1.83;1.73;;;25.60;71.20;;;;;;5054151;28;20539;-86
2022/10/28 08:47:45;;;;;;;1.93;1.70;;;25.70;71.10;;;;;;5051016;28;20487;-92
2022/10/28 08:50:15;;;;;;;1.53;1.40;;;25.70;71.20;;;;;;5053762;28;21013;-86
2022/10/28 08:52:47;;;;;;;1.50;1.40;;;25.70;71.20;;;;;;5054047;28;20547;-86
2022/10/28 08:55:17;;;;;;;1.60;1.50;;;25.80;71.10;;;;;;5053958;28;20440;-86
2022/10/28 08:57:48;;;;;;;4.33;1.83;;;25.80;70.90;;;;;;5053875;28;20447;-86
2022/10/28 09:00:22;;;;;;;1.87;1.67;;;25.90;70.70;;;;;;5053791;28;20439;-84
2022/10/28 09:03:01;;;;;;;2.03;1.90;;;26.00;70.60;;;;;;5052979;28;20444;-84
2022/10/28 09:05:28;;;;;;;1.67;1.57;;;26.00;70.50;;;;;;5053572;28;20931;-88
2022/10/28 09:07:57;;;;;;;3.53;2.00;;;26.00;70.50;;;;;;5052893;28;20488;-89
2022/10/28 09:10:44;;;;;;;1.40;1.30;;;26.10;70.50;;;;;;5053801;28;20449;-89
2022/10/28 09:13:21;;;;;;;1.70;1.57;;;26.30;70.20;;;;;;5053260;28;20793;-83
2022/10/28 09:15:55;;;;;;;1.70;1.60;;;26.50;69.70;;;;;;5053444;28;20427;-83
2022/10/28 09:18:38;;;;;;;1.90;1.50;;;26.80;69.10;;;;;;5053653;28;20452;-86
2022/10/28 09:21:12;;;;;;;2.43;1.50;;;27.10;68.20;;;;;;5053607;28;20449;-84
2022/10/28 09:23:48;;;;;;;1.60;1.50;;;27.30;67.60;;;;;;5053583;28;20460;-85
2022/10/28 09:26:24;;;;;;;2.07;1.50;;;27.60;67.20;;;;;;5055644;28;20876;-86
2022/10/28 09:28:59;;;;;;;1.63;1.53;;;27.80;66.70;;;;;;5070968;28;20901;-88
2022/10/28 09:31:34;;;;;;;1.57;1.47;;;28.00;66.30;;;;;;5067634;28;20440;-90
2022/10/28 09:34:13;;;;;;;1.80;1.30;;;28.30;65.60;;;;;;5055974;28;20454;-87
2022/10/28 09:36:44;;;;;;;2.27;2.07;;;28.60;65.00;;;;;;5073479;28;20530;-88
2022/10/28 09:39:17;;;;;;;1.70;1.40;;;28.90;64.60;;;;;;5073707;28;20526;-89
2022/10/28 09:41:46;;;;;;;1.40;1.30;;;29.10;64.20;;;;;;5074122;28;20843;-88
2022/10/28 09:44:18;;;;;;;1.70;1.60;;;29.40;63.90;;;;;;5074002;28;20451;-89
2022/10/28 09:46:47;;;;;;;3.43;1.57;;;29.60;63.40;;;;;;5074371;28;21062;-89
2022/10/28 09:49:20;;;;;;;3.10;1.67;;;29.80;63.20;;;;;;5073955;28;20535;-89
2022/10/28 09:51:52;;;;;;;1.83;1.50;;;29.90;62.90;;;;;;5073908;28;20903;-89
2022/10/28 09:54:28;;;;;;;1.90;1.47;;;30.20;63.50;;;;;;5073696;28;20444;-89
2022/10/28 09:56:54;;;;;;;1.40;1.30;;;30.40;62.30;;;;;;5073947;28;20440;-89
2022/10/28 09:59:21;;;;;;;2.03;1.60;;;30.50;62.10;;;;;;5073797;28;20452;-91
2022/10/28 10:01:48;;;;;;;1.90;1.40;;;30.60;61.90;;;;;;5076352;28;20532;-89
2022/10/28 10:04:22;;;;;;;2.30;1.50;;;30.50;62.00;;;;;;5076113;28;20863;-89
2022/10/28 10:06:51;;;;;;;4.03;1.90;;;30.50;62.10;;;;;;5073947;28;20986;-89
2022/10/28 10:09:23;;;;;;;2.50;1.80;;;30.40;62.30;;;;;;5055437;28;20445;-89
2022/10/28 10:11:52;;;;;;;1.93;1.70;;;30.40;62.30;;;;;;5054441;28;20508;-89
2022/10/28 10:14:23;;;;;;;2.00;1.80;;;30.30;62.50;;;;;;5053344;28;20442;-89
2022/10/28 10:16:54;;;;;;;2.40;1.90;;;30.10;62.80;;;;;;5053412;28;20442;-89
2022/10/28 10:19:22;;;;;;;1.93;1.63;;;29.80;63.40;;;;;;5054198;28;20444;-89
2022/10/28 10:21:51;;;;;;;2.80;2.43;;;29.50;64.10;;;;;;5053401;28;20459;-93
2022/10/28 10:24:28;;;;;;;2.93;2.27;;;29.30;64.70;;;;;;5055613;28;20443;-87
2022/10/28 10:26:55;;;;;;;3.00;2.00;;;29.10;66.20;;;;;;5056670;28;20895;-83
2022/10/28 10:29:22;;;;;;;3.90;1.93;;;28.90;65.90;;;;;;5056820;28;20443;-89
2022/10/28 10:32:05;;;;;;;3.20;2.40;;;28.60;65.70;;;;;;5056919;28;20453;-87
2022/10/28 10:34:33;;;;;;;3.00;2.17;;;28.50;66.40;;;;;;5056654;28;20542;-87
2022/10/28 10:37:01;;;;;;;3.93;2.07;;;28.40;66.80;;;;;;5056528;28;20495;-88
2022/10/28 10:39:36;;;;;;;3.87;2.33;;;28.30;67.00;;;;;;5050452;28;20543;-87
2022/10/28 10:42:16;;;;;;;2.43;1.40;;;28.10;66.90;;;;;;5038238;28;20473;-85
2022/10/28 10:44:43;;;;;;;2.70;2.20;;;27.90;67.10;;;;;;5056007;28;20451;-85
2022/10/28 10:47:22;;;;;;;8.87;2.10;;;27.80;67.60;;;;;;5056502;28;20527;-87
2022/10/28 10:49:50;;;;;;;5.80;2.80;;;27.70;67.90;;;;;;5056413;28;20533;-88
2022/10/28 10:52:21;;;;;;;3.53;2.27;;;27.70;68.10;;;;;;5038498;28;20449;-87
2022/10/28 10:55:05;;;;;;;3.50;1.93;;;27.70;68.30;;;;;;5056376;28;20477;-87
2022/10/28 10:57:33;;;;;;;2.70;2.50;;;27.70;68.50;;;;;;5036108;28;20500;-88
2022/10/28 11:00:00;;;;;;;3.73;2.70;;;27.60;68.70;;;;;;5036700;28;20443;-88
2022/10/28 11:02:31;;;;;;;3.00;2.00;;;27.60;68.90;;;;;;5036022;28;20439;-88
2022/10/28 11:05:03;;;;;;;2.30;2.10;;;27.50;69.00;;;;;;5036279;28;20468;-88
2022/10/28 11:07:31;;;;;;;2.97;2.67;;;27.50;69.10;;;;;;5035499;28;21044;-88
2022/10/28 11:09:59;;;;;;;2.90;2.30;;;27.40;70.00;;;;;;5035857;28;20530;-87
2022/10/28 11:12:29;;;;;;;3.30;2.00;;;27.40;69.40;;;;;;5035471;28;20439;-87
2022/10/28 11:14:58;;;;;;;2.07;1.97;;;27.40;69.50;;;;;;5035629;28;20449;-88
2022/10/28 11:17:27;;;;;;;2.80;2.60;;;27.40;69.60;;;;;;5035714;28;20447;-87
2022/10/28 11:19:56;;;;;;;2.23;2.13;;;27.40;69.70;;;;;;5035435;28;21012;-88
2022/10/28 11:22:38;;;;;;;4.13;2.30;;;27.20;69.70;;;;;;5035630;28;20534;-88
2022/10/28 11:25:31;;;;;;;2.30;2.13;;;27.20;69.90;;;;;;5037563;28;20441;-88
2022/10/28 11:28:18;;;;;;;4.83;2.43;;;27.20;69.90;;;;;;5031979;28;20490;-87
2022/10/28 11:30:55;;;;;;;3.87;2.03;;;27.10;69.80;;;;;;4992428;28;20439;-88
2022/10/28 11:33:29;;;;;;;2.43;2.23;;;27.00;69.70;;;;;;5035511;28;20436;-88
2022/10/28 11:36:04;;;;;;;2.73;2.00;;;26.90;69.80;;;;;;5034624;28;20979;-87
2022/10/28 11:39:14;;;;;;;2.40;2.20;;;26.90;70.10;;;;;;5035146;28;20473;-87
2022/10/28 11:45:18;;;;;;;4.97;1.70;;;26.80;70.30;;;;;;4938822;28;20429;-90
2022/10/28 11:47:57;;;;;;;2.33;2.13;;;26.70;70.40;;;;;;4982973;28;20499;-88
2022/10/28 11:50:41;;;;;;;5.37;1.90;;;26.70;70.50;;;;;;5016486;28;20846;-88
2022/10/28 11:53:30;;;;;;;2.63;2.43;;;26.70;70.60;;;;;;5034844;28;20534;-89
2022/10/28 11:56:09;;;;;;;2.60;2.10;;;26.70;70.60;;;;;;5035656;28;20525;-89
2022/10/28 11:58:45;;;;;;;6.40;1.90;;;26.70;70.90;;;;;;5034966;28;20489;-88
2022/10/28 12:01:29;;;;;;;3.40;1.93;;;26.60;70.80;;;;;;5034483;28;20507;-88
2022/10/28 12:04:22;;;;;;;5.50;2.50;;;26.60;70.90;;;;;;5034663;28;20517;-88
2022/10/28 12:07:30;;;;;;;3.23;2.00;;;26.60;70.90;;;;;;5034306;28;20926;-88
2022/10/28 12:10:28;;;;;;;2.30;2.20;;;26.60;71.10;;;;;;4973892;28;20522;-88
2022/10/28 12:13:12;;;;;;;5.83;2.70;;;26.70;71.50;;;;;;4974103;28;20433;-88
2022/10/28 12:15:46;;;;;;;5.07;2.90;;;26.80;72.00;;;;;;5024396;28;20442;-91
2022/10/28 12:18:21;;;;;;;9.17;4.60;;;26.80;73.10;;;;;;5034509;28;20521;-88
2022/10/28 12:20:55;;;;;;;8.63;4.70;;;26.80;72.30;;;;;;5034417;28;20541;-88
2022/10/28 12:23:24;;;;;;;12.90;5.53;;;26.80;72.60;;;;;;5034132;28;20442;-88
2022/10/28 12:25:57;;;;;;;14.50;5.63;;;26.80;72.60;;;;;;5035255;28;20542;-91
2022/10/28 12:28:33;;;;;;;13.57;4.80;;;26.80;72.70;;;;;;5018534;28;20497;-88
2022/10/28 12:31:02;;;;;;;13.17;5.00;;;26.90;72.70;;;;;;5035121;28;20446;-90
2022/10/28 12:33:35;;;;;;;16.53;5.10;;;26.90;72.70;;;;;;5034166;28;20529;-88
2022/10/28 12:36:21;;;;;;;11.57;5.40;;;27.00;72.70;;;;;;5016714;28;20955;-90
2022/10/28 12:38:55;;;;;;;13.53;5.50;;;27.00;72.70;;;;;;5034075;28;20480;-89
2022/10/28 12:41:26;;;;;;;15.23;5.80;;;27.00;72.70;;;;;;5033891;28;20549;-88
2022/10/28 12:43:59;;;;;;;9.10;5.40;;;27.00;72.60;;;;;;5033879;28;20446;-90
2022/10/28 12:46:43;;;;;;;13.03;5.07;;;27.00;72.60;;;;;;5033355;28;20976;-88
2022/10/28 12:49:18;;;;;;;11.87;5.13;;;27.00;72.50;;;;;;5033547;28;20544;-90
2022/10/28 12:51:45;;;;;;;7.37;4.03;;;27.00;73.40;;;;;;5016694;28;20441;-88
2022/10/28 12:54:22;;;;;;;8.10;4.70;;;27.00;72.60;;;;;;5033976;28;20952;-88
2022/10/28 12:56:52;;;;;;;14.03;4.77;;;27.00;72.50;;;;;;5034709;28;20434;-88
2022/10/28 12:59:28;;;;;;;13.17;5.20;;;27.00;72.60;;;;;;5034249;28;20438;-88
2022/10/28 13:01:59;;;;;;;9.73;5.13;;;27.00;72.60;;;;;;5038552;28;20445;-88
2022/10/28 13:04:27;;;;;;;7.37;4.37;;;27.00;72.60;;;;;;5054068;28;20548;-90
2022/10/28 13:07:25;;;;;;;8.43;4.77;;;27.00;72.70;;;;;;5053451;28;20477;-88
2022/10/28 13:10:00;;;;;;;9.67;5.20;;;27.00;72.60;;;;;;5054017;28;20430;-88